CheckWX is a tool to help pilots better visualize weather data.  It is not intended as a substitute for an official pre-flight weather briefing.

06:08:24 UTC

KPAH METAR
Barkley Regional Airport
Paducah, Kentucky, USA
Current

15 mins ago

KPAH 230553Z AUTO VRB03KT 10SM CLR 17/11 A3004 RMK AO2 SLP168 T01720106 10244 20144 402670089 58002
Observed
Apr-23 @ 05:53 UTC
Wind
  • Variable at 3 KTS
Visibility
10 SM
Flight Rules
VFR
Cloud Levels
  • Clear skies
Temperature
17°C / 63°F
Dewpoint
11°C / 52°F
Humidity
68%
Altimeter
30.04" Hg
Pressure
1017.32 hPa
Previous

1 hour ago

KPAH 230453Z AUTO 21006KT 10SM CLR 18/11 A3005 RMK AO2 SLP170 T01830106
Observed
Apr-23 @ 04:53 UTC
Wind
  • 210° at 6 KTS
Visibility
10 SM
Flight Rules
VFR
Cloud Levels
  • Clear skies
Temperature
18°C / 64°F
Dewpoint
11°C / 52°F
Humidity
64%
Altimeter
30.05" Hg
Pressure
1017.62 hPa
Previous

2 hours ago

KPAH 230353Z 23005KT 10SM CLR 17/11 A3005 RMK AO2 SLP172 T01720111
Observed
Apr-23 @ 03:53 UTC
Wind
  • 230° at 5 KTS
Visibility
10 SM
Flight Rules
VFR
Cloud Levels
  • Clear skies
Temperature
17°C / 63°F
Dewpoint
11°C / 52°F
Humidity
68%
Altimeter
30.05" Hg
Pressure
1017.62 hPa